PORT of ALESUND

Land: Norway Land: Norway (NO)
Breddegrad / Længdegrad: 62.4698° / 6.13655° Vis på kort Vis på kort
Lokal Tid (LT):  UTC +2
UN/LOCODE: NOAES
Fartøjer i havn i øjeblikket: 15
Forventet ankomst: 9

Nylige ankomster & afgange


Fartøjs navn
Ankomst (UTC)
Ankomst (LT)
Afgang (UTC)
Afgang (LT)
Vessel Type: Bugserbåd, Lodsbåd, etc  RESCUE DNV II 2014-10-21 18:21:00 2014-10-21 20:21:00
Vessel Type: Bugserbåd, Lodsbåd, etc  RESCUE DNV II 2014-10-21 08:01:00 2014-10-21 10:01:00 2014-10-21 18:04:00 2014-10-21 20:04:00
Vessel Type: Yachts & andre  GUNN ANITA 2014-10-21 17:58:00 2014-10-21 19:58:00
Vessel Type: højhastigheds skib  TYRVING 2014-10-21 17:26:00 2014-10-21 19:26:00
Vessel Type: Passagerfartøjer  NORDIC LADY 2014-10-21 16:37:00 2014-10-21 18:37:00 2014-10-21 17:14:00 2014-10-21 19:14:00
Vessel Type: Passagerfartøjer  MIDNATSOL 2014-10-21 14:48:00 2014-10-21 16:48:00 2014-10-21 17:14:00 2014-10-21 19:14:00
Vessel Type: Bugserbåd, Lodsbåd, etc  ISLAND PRIDE 2014-10-21 09:02:00 2014-10-21 11:02:00 2014-10-21 17:07:00 2014-10-21 19:07:00
Vessel Type: højhastigheds skib  TYRVING 2014-10-21 16:18:00 2014-10-21 18:18:00 2014-10-21 16:33:00 2014-10-21 18:33:00
Vessel Type: højhastigheds skib  TIDELYN 2014-10-21 16:27:00 2014-10-21 18:27:00
Vessel Type: Passagerfartøjer  NORDIC LADY 2014-10-21 15:06:00 2014-10-21 17:06:00 2014-10-21 16:19:00 2014-10-21 18:19:00

Forventet ankomst


Fartøjs navn
Scheduled Arrival (UTC)
Planlagt ankomst (LT)
Anslående ankomsttidspunkt (UTC)
Anslående ankomsttidspunkt (LT)
Vessel Type: Fragtskibe  SEA CARGO EXPRESS 2014-10-21 23:55:00 2014-10-22 01:55:00 2014-10-22 08:26:00 2014-10-22 10:26:00
Vessel Type: Tankere  BERGEN VIKING 2014-10-22 01:00:00 2014-10-22 03:00:00 2014-10-21 22:45:00 2014-10-22 00:45:00
Vessel Type: Fragtskibe  TORVANG 2014-10-22 01:00:00 2014-10-22 03:00:00 2014-10-21 22:57:00 2014-10-22 00:57:00
Vessel Type: Tankere  KYSTBUNKER 2014-10-22 04:00:00 2014-10-22 06:00:00 2014-10-22 01:43:00 2014-10-22 03:43:00
Vessel Type: Bugserbåd, Lodsbåd, etc  NJORD R 2014-10-22 05:00:00 2014-10-22 07:00:00 2014-10-22 04:45:00 2014-10-22 06:45:00
Vessel Type: Tankere  TARNDAL 2014-10-22 12:00:00 2014-10-22 14:00:00 2014-10-22 08:53:00 2014-10-22 10:53:00
Vessel Type: Fragtskibe  VARGOY 2014-10-23 07:00:00 2014-10-23 09:00:00 2014-10-22 14:31:00 2014-10-22 16:31:00
Vessel Type: Fragtskibe  VARNEBANK 2014-10-29 12:00:00 2014-10-29 14:00:00 2014-10-29 05:55:00 2014-10-29 07:55:00
Vessel Type: Fragtskibe  WILSON DUBLIN 2014-10-29 12:00:00 2014-10-29 14:00:00 2014-10-30 15:33:00 2014-10-30 17:33:00

Wind Forecast


    
Tid (UTC)
Hastighed
Direction
Temperature
2014-10-21 18:00:00 19 knots 160° 13°C
2014-10-21 21:00:00 20 knots 163° 13°C
2014-10-22 00:00:00 21 knots 172° 13°C
2014-10-22 03:00:00 19 knots 185° 12°C
2014-10-22 06:00:00 20 knots 228° 12°C
2014-10-22 09:00:00 14 knots 282° 9°C
2014-10-22 12:00:00 10 knots 284° 9°C
2014-10-22 15:00:00 9 knots 277° 8°C
2014-10-22 18:00:00 8 knots 213° 8°C
2014-10-22 21:00:00 13 knots 196° 9°C
2014-10-23 00:00:00 21 knots 208° 10°C
2014-10-23 03:00:00 30 knots 196° 10°C
2014-10-23 06:00:00 34 knots 199° 11°C
2014-10-23 09:00:00 31 knots 200° 12°C
2014-10-23 12:00:00 29 knots 205° 12°C
2014-10-23 15:00:00 26 knots 207° 12°C
2014-10-23 18:00:00 24 knots 206° 12°C